sensor_id;sensor_type;location;lat;lon;timestamp;temperature;humidity
19007;DHT22;9636;47.382;8.480;2023-05-01T06:43:04;17.90;99.90
19007;DHT22;9636;47.382;8.480;2023-05-01T06:45:34;17.90;99.90
19007;DHT22;9636;47.382;8.480;2023-05-01T06:48:06;18.00;99.90
19007;DHT22;9636;47.382;8.480;2023-05-01T12:45:25;25.10;98.80
19007;DHT22;9636;47.382;8.480;2023-05-01T12:47:52;25.20;97.60
19007;DHT22;9636;47.382;8.480;2023-05-01T12:50:19;25.20;97.50
19007;DHT22;9636;47.382;8.480;2023-05-01T12:55:22;25.10;97.50
19007;DHT22;9636;47.382;8.480;2023-05-01T12:57:51;25.00;97.60
19007;DHT22;9636;47.382;8.480;2023-05-01T13:00:19;25.00;97.60
19007;DHT22;9636;47.382;8.480;2023-05-01T13:02:48;25.00;97.60
19007;DHT22;9636;47.382;8.480;2023-05-01T13:20:48;24.70;97.50
19007;DHT22;9636;47.382;8.480;2023-05-01T13:23:18;24.60;97.80
19007;DHT22;9636;47.382;8.480;2023-05-01T13:25:54;24.60;97.80
19007;DHT22;9636;47.382;8.480;2023-05-01T13:28:21;24.50;97.90
19007;DHT22;9636;47.382;8.480;2023-05-01T13:30:49;24.50;97.90
19007;DHT22;9636;47.382;8.480;2023-05-01T13:33:15;24.60;97.70
19007;DHT22;9636;47.382;8.480;2023-05-01T13:35:42;24.70;97.50
19007;DHT22;9636;47.382;8.480;2023-05-01T13:38:11;24.70;97.00
19007;DHT22;9636;47.382;8.480;2023-05-01T13:40:56;24.80;96.60
19007;DHT22;9636;47.382;8.480;2023-05-01T13:43:24;24.90;96.50
19007;DHT22;9636;47.382;8.480;2023-05-01T13:45:56;24.90;96.60
19007;DHT22;9636;47.382;8.480;2023-05-01T13:48:24;25.00;96.30
19007;DHT22;9636;47.382;8.480;2023-05-01T13:50:51;25.10;96.10
19007;DHT22;9636;47.382;8.480;2023-05-01T13:53:21;25.10;96.20
19007;DHT22;9636;47.382;8.480;2023-05-01T13:58:14;25.20;96.30
19007;DHT22;9636;47.382;8.480;2023-05-01T14:00:43;25.20;96.20
19007;DHT22;9636;47.382;8.480;2023-05-01T14:03:11;25.20;96.10
19007;DHT22;9636;47.382;8.480;2023-05-01T14:05:41;25.20;96.20
19007;DHT22;9636;47.382;8.480;2023-05-01T14:08:08;25.20;96.00
19007;DHT22;9636;47.382;8.480;2023-05-01T14:13:03;25.30;96.00
19007;DHT22;9636;47.382;8.480;2023-05-01T14:15:32;25.30;95.80
19007;DHT22;9636;47.382;8.480;2023-05-01T14:18:05;25.30;95.80
19007;DHT22;9636;47.382;8.480;2023-05-01T14:20:32;25.40;95.80
19007;DHT22;9636;47.382;8.480;2023-05-01T14:22:59;25.30;95.90
19007;DHT22;9636;47.382;8.480;2023-05-01T14:25:28;25.30;95.90
19007;DHT22;9636;47.382;8.480;2023-05-01T14:27:58;25.20;95.70
19007;DHT22;9636;47.382;8.480;2023-05-01T14:30:30;25.10;95.60
19007;DHT22;9636;47.382;8.480;2023-05-01T14:33:00;25.10;95.70
19007;DHT22;9636;47.382;8.480;2023-05-01T14:35:27;25.10;95.70
19007;DHT22;9636;47.382;8.480;2023-05-01T14:37:55;25.00;95.80
19007;DHT22;9636;47.382;8.480;2023-05-01T14:40:24;25.00;95.80
19007;DHT22;9636;47.382;8.480;2023-05-01T14:42:52;25.00;95.80
19007;DHT22;9636;47.382;8.480;2023-05-01T14:45:21;25.00;95.80
19007;DHT22;9636;47.382;8.480;2023-05-01T14:47:48;25.00;95.80
19007;DHT22;9636;47.382;8.480;2023-05-01T14:50:19;24.90;95.80
19007;DHT22;9636;47.382;8.480;2023-05-01T14:52:47;24.90;95.70
19007;DHT22;9636;47.382;8.480;2023-05-01T14:55:23;24.90;95.80
19007;DHT22;9636;47.382;8.480;2023-05-01T14:57:55;24.90;95.80
19007;DHT22;9636;47.382;8.480;2023-05-01T15:00:24;25.00;95.60
19007;DHT22;9636;47.382;8.480;2023-05-01T15:02:51;25.00;95.50
19007;DHT22;9636;47.382;8.480;2023-05-01T15:05:18;25.00;95.40
19007;DHT22;9636;47.382;8.480;2023-05-01T15:07:45;25.10;95.40
19007;DHT22;9636;47.382;8.480;2023-05-01T15:10:15;25.00;95.30
19007;DHT22;9636;47.382;8.480;2023-05-01T15:12:42;25.00;95.40
19007;DHT22;9636;47.382;8.480;2023-05-01T15:15:10;25.00;95.40
19007;DHT22;9636;47.382;8.480;2023-05-01T15:17:38;24.90;95.50
19007;DHT22;9636;47.382;8.480;2023-05-01T15:20:06;24.90;95.50
19007;DHT22;9636;47.382;8.480;2023-05-01T15:22:34;24.90;95.50
19007;DHT22;9636;47.382;8.480;2023-05-01T15:25:01;24.90;95.50
19007;DHT22;9636;47.382;8.480;2023-05-01T15:27:28;24.80;95.60
19007;DHT22;9636;47.382;8.480;2023-05-01T15:29:55;24.80;95.60
19007;DHT22;9636;47.382;8.480;2023-05-01T15:32:22;24.70;95.60
19007;DHT22;9636;47.382;8.480;2023-05-01T15:34:50;24.70;95.60
19007;DHT22;9636;47.382;8.480;2023-05-01T15:37:21;24.70;95.60
19007;DHT22;9636;47.382;8.480;2023-05-01T15:39:49;24.60;95.50
19007;DHT22;9636;47.382;8.480;2023-05-01T15:42:17;24.60;95.60
19007;DHT22;9636;47.382;8.480;2023-05-01T15:44:44;24.60;95.70
19007;DHT22;9636;47.382;8.480;2023-05-01T15:47:12;24.50;95.80
19007;DHT22;9636;47.382;8.480;2023-05-01T15:49:42;24.50;96.00
19007;DHT22;9636;47.382;8.480;2023-05-01T15:52:11;24.40;96.20
19007;DHT22;9636;47.382;8.480;2023-05-01T15:57:03;24.40;96.30
19007;DHT22;9636;47.382;8.480;2023-05-01T15:59:32;24.30;96.40
19007;DHT22;9636;47.382;8.480;2023-05-01T16:01:59;24.20;96.60
19007;DHT22;9636;47.382;8.480;2023-05-01T16:04:26;24.10;96.70
19007;DHT22;9636;47.382;8.480;2023-05-01T16:06:53;24.10;96.90
19007;DHT22;9636;47.382;8.480;2023-05-01T16:09:25;24.00;97.00
19007;DHT22;9636;47.382;8.480;2023-05-01T16:11:55;23.90;97.10
19007;DHT22;9636;47.382;8.480;2023-05-01T16:14:24;23.80;97.30
19007;DHT22;9636;47.382;8.480;2023-05-01T16:16:51;23.80;97.40
19007;DHT22;9636;47.382;8.480;2023-05-01T16:19:35;23.70;97.60
19007;DHT22;9636;47.382;8.480;2023-05-01T16:22:05;23.60;97.60
19007;DHT22;9636;47.382;8.480;2023-05-01T16:24:37;23.50;97.60
19007;DHT22;9636;47.382;8.480;2023-05-01T16:27:05;23.50;97.70
19007;DHT22;9636;47.382;8.480;2023-05-01T16:29:32;23.40;97.80
19007;DHT22;9636;47.382;8.480;2023-05-01T16:32:01;23.30;98.00
19007;DHT22;9636;47.382;8.480;2023-05-01T16:34:55;23.20;98.00
19007;DHT22;9636;47.382;8.480;2023-05-01T16:37:22;23.20;98.30
19007;DHT22;9636;47.382;8.480;2023-05-01T16:39:52;23.10;98.40
19007;DHT22;9636;47.382;8.480;2023-05-01T16:42:20;23.10;98.60
19007;DHT22;9636;47.382;8.480;2023-05-01T16:44:47;23.00;98.60
19007;DHT22;9636;47.382;8.480;2023-05-01T16:47:14;23.00;98.70
19007;DHT22;9636;47.382;8.480;2023-05-01T16:49:42;22.80;98.80
19007;DHT22;9636;47.382;8.480;2023-05-01T16:52:11;22.80;99.00
19007;DHT22;9636;47.382;8.480;2023-05-01T16:57:17;22.70;99.20
19007;DHT22;9636;47.382;8.480;2023-05-01T16:59:44;22.60;99.30
19007;DHT22;9636;47.382;8.480;2023-05-01T17:02:11;22.50;99.50
19007;DHT22;9636;47.382;8.480;2023-05-01T17:05:00;22.50;99.70
19007;DHT22;9636;47.382;8.480;2023-05-01T17:08:06;22.40;99.80
19007;DHT22;9636;47.382;8.480;2023-05-01T17:11:10;22.40;99.90
